Branch, Wisconsin
Current Conditions -  °F | °C
As of 9:56 PM on Thursday 18 Dec 2014 (Local Time) from KMTW Reporting Station
Clear Clear  
Wind Chill: 16°   Ceiling: Unl
Heat Index: 22°   Visibility: 10mi
Dew Point: 19°   Wind: 5mph
Humidity: 89%   Direction: 310°NW
Pressure: 30.26"   Gusts: NA
Location:  44.15°N, 87.76°W
Report Text: KMTW 190356Z AUTO 31004KT 10SM CLR M06/M07 A3026 RMK AO2 SLP271 T10561072 FZRANO
Loading
Personal Weather Stations






























Interactive Weather Map New forecast layout! Learn more

10-Day Weather Forecast

Advertisements
Track Severe Weather on mobile